createdAt,value
2022-12-03T00:00:22.025Z,4.30
2022-12-03T00:02:50.494Z,4.20
2022-12-03T00:05:20.205Z,4.20
2022-12-03T00:07:48.579Z,4.10
2022-12-03T00:10:16.719Z,4.10
2022-12-03T00:12:44.877Z,4.00
2022-12-03T00:15:13.383Z,4.00
2022-12-03T00:17:41.631Z,3.90
2022-12-03T00:20:12.777Z,3.90
2022-12-03T00:22:42.555Z,3.80
2022-12-03T00:25:11.080Z,3.70
2022-12-03T00:27:39.314Z,3.70
2022-12-03T00:30:08.766Z,3.70
2022-12-03T00:32:36.986Z,3.70
2022-12-03T00:35:05.458Z,3.70
2022-12-03T00:37:35.141Z,3.60
2022-12-03T00:40:05.470Z,3.60
2022-12-03T00:42:33.732Z,3.60
2022-12-03T00:45:01.921Z,3.60
2022-12-03T00:47:30.078Z,3.50
2022-12-03T00:49:58.282Z,3.50
2022-12-03T00:52:26.433Z,3.40
2022-12-03T00:54:54.715Z,3.40
2022-12-03T00:57:24.484Z,3.40
2022-12-03T00:59:52.591Z,3.30
2022-12-03T01:02:20.780Z,3.30
2022-12-03T01:04:49.055Z,3.20
2022-12-03T01:07:17.398Z,3.20
2022-12-03T01:09:45.620Z,3.10
2022-12-03T01:12:13.740Z,3.20
2022-12-03T01:14:43.303Z,3.20
2022-12-03T01:17:12.398Z,3.20
2022-12-03T01:19:44.983Z,3.20
2022-12-03T01:22:16.369Z,3.20
2022-12-03T01:24:44.559Z,3.30
2022-12-03T01:27:12.643Z,3.30
2022-12-03T01:29:42.158Z,3.30
2022-12-03T01:32:19.733Z,3.30
2022-12-03T01:34:50.044Z,3.30
2022-12-03T01:37:18.796Z,3.40
2022-12-03T01:39:46.967Z,3.40
2022-12-03T01:42:19.185Z,3.50
2022-12-03T01:44:49.972Z,3.40
2022-12-03T01:47:20.733Z,3.50
2022-12-03T01:49:51.926Z,3.50
2022-12-03T01:52:22.232Z,3.50
2022-12-03T01:54:54.553Z,3.50
2022-12-03T01:57:26.137Z,3.50
2022-12-03T01:59:57.490Z,3.50
2022-12-03T02:02:28.376Z,3.50
2022-12-03T02:04:57.096Z,3.60
2022-12-03T02:07:28.454Z,3.60
2022-12-03T02:09:58.782Z,3.60
2022-12-03T02:12:32.252Z,3.60
2022-12-03T02:15:02.864Z,3.60
2022-12-03T02:17:31.965Z,3.60
2022-12-03T02:20:01.740Z,3.70
2022-12-03T02:22:39.049Z,3.70
2022-12-03T02:25:12.627Z,3.60
2022-12-03T02:27:41.734Z,3.60
2022-12-03T02:30:11.825Z,3.70
2022-12-03T02:32:40.212Z,3.60
2022-12-03T02:35:14.495Z,3.60
2022-12-03T02:37:44.845Z,3.60
2022-12-03T02:40:18.578Z,3.50
2022-12-03T02:42:46.046Z,3.50
2022-12-03T02:45:18.411Z,3.60
2022-12-03T02:47:49.354Z,3.60
2022-12-03T02:50:20.735Z,3.60
2022-12-03T02:52:49.874Z,3.60
2022-12-03T02:55:19.921Z,3.60
2022-12-03T02:57:51.189Z,3.70
2022-12-03T03:00:20.523Z,3.60
2022-12-03T03:02:49.630Z,3.60
2022-12-03T03:05:21.714Z,3.70
2022-12-03T03:07:51.185Z,3.70
2022-12-03T03:10:24.083Z,3.70
2022-12-03T03:12:55.194Z,3.80
2022-12-03T03:15:24.331Z,3.70
2022-12-03T03:17:52.777Z,3.80
2022-12-03T03:20:21.089Z,3.80
2022-12-03T03:22:49.187Z,3.80
2022-12-03T03:25:22.513Z,3.80
2022-12-03T03:27:50.631Z,3.80
2022-12-03T03:30:18.860Z,3.70
2022-12-03T03:32:47.194Z,3.80
2022-12-03T03:35:15.545Z,3.80
2022-12-03T03:37:43.786Z,3.80
2022-12-03T03:40:12.665Z,3.80
2022-12-03T03:42:42.478Z,3.90
2022-12-03T03:45:11.263Z,3.90
2022-12-03T03:47:39.728Z,3.90
2022-12-03T03:50:10.049Z,3.90
2022-12-03T03:52:40.200Z,3.90
2022-12-03T03:55:11.414Z,3.90
2022-12-03T03:57:41.445Z,3.90
2022-12-03T04:00:10.927Z,3.80
2022-12-03T04:02:39.477Z,3.90
2022-12-03T04:05:08.808Z,3.90
2022-12-03T04:07:37.032Z,3.90
2022-12-03T04:10:26.084Z,3.90
2022-12-03T04:12:57.612Z,3.80
2022-12-03T04:15:26.800Z,3.90
2022-12-03T04:18:08.981Z,3.90
2022-12-03T04:20:37.024Z,3.90
2022-12-03T04:23:04.785Z,3.90
2022-12-03T04:25:50.160Z,3.80
2022-12-03T04:28:37.447Z,3.90
2022-12-03T04:31:25.878Z,3.90
2022-12-03T04:34:11.868Z,3.90
2022-12-03T04:36:40.401Z,3.80
2022-12-03T04:39:08.618Z,3.80
2022-12-03T04:41:36.704Z,3.70
2022-12-03T04:44:23.938Z,3.80
2022-12-03T04:46:52.024Z,3.80
2022-12-03T04:49:20.234Z,3.70
2022-12-03T04:51:48.371Z,3.70
2022-12-03T04:54:16.723Z,3.70
2022-12-03T04:56:45.208Z,3.70
2022-12-03T04:59:16.548Z,3.70
2022-12-03T05:01:45.984Z,3.80
2022-12-03T05:04:14.558Z,3.80
2022-12-03T05:06:42.886Z,3.90
2022-12-03T05:09:11.352Z,3.80
2022-12-03T05:11:39.543Z,3.80
2022-12-03T05:14:07.824Z,3.70
2022-12-03T05:16:37.671Z,3.80
2022-12-03T05:19:07.505Z,3.70
2022-12-03T05:21:34.624Z,3.80
2022-12-03T05:24:03.167Z,3.80
2022-12-03T05:26:31.310Z,3.80
2022-12-03T05:28:59.619Z,3.80
2022-12-03T05:31:28.056Z,3.80
2022-12-03T05:33:57.722Z,3.90
2022-12-03T05:36:26.324Z,3.90
2022-12-03T05:38:54.532Z,3.80
2022-12-03T05:41:39.972Z,3.80
2022-12-03T05:44:08.150Z,3.80
2022-12-03T05:46:36.381Z,3.80
2022-12-03T05:49:06.080Z,3.80
2022-12-03T05:51:34.232Z,3.80
2022-12-03T05:54:02.382Z,3.90
2022-12-03T05:56:30.567Z,3.90
2022-12-03T05:58:58.772Z,3.90
2022-12-03T06:01:26.864Z,3.90
2022-12-03T06:03:55.186Z,3.90
2022-12-03T06:06:24.777Z,3.90
2022-12-03T06:08:53.058Z,3.90
2022-12-03T06:11:21.258Z,3.90
2022-12-03T06:13:49.432Z,3.90
2022-12-03T06:16:17.601Z,3.90
2022-12-03T06:18:45.751Z,4.00
2022-12-03T06:21:14.059Z,4.00
2022-12-03T06:23:44.936Z,3.90
2022-12-03T06:26:13.247Z,3.90
2022-12-03T06:28:46.308Z,3.90
2022-12-03T06:31:14.901Z,3.90
2022-12-03T06:33:43.017Z,3.90
2022-12-03T06:36:11.343Z,3.90
2022-12-03T06:38:39.474Z,3.90
2022-12-03T06:41:09.176Z,3.90
2022-12-03T06:43:37.345Z,3.90
2022-12-03T06:46:06.007Z,3.90
2022-12-03T06:48:34.153Z,4.00
2022-12-03T06:51:02.327Z,3.90
2022-12-03T06:53:31.527Z,4.00
2022-12-03T06:55:59.682Z,3.90
2022-12-03T06:58:29.238Z,4.00
2022-12-03T07:00:57.358Z,4.00
2022-12-03T07:03:25.602Z,4.00
2022-12-03T07:05:53.773Z,4.00
2022-12-03T07:08:21.956Z,4.00
2022-12-03T07:10:49.977Z,4.00
2022-12-03T07:13:18.359Z,4.00
2022-12-03T07:15:47.853Z,3.90
2022-12-03T07:18:16.049Z,3.90
2022-12-03T07:20:44.213Z,4.00
2022-12-03T07:23:12.325Z,3.90
2022-12-03T07:25:40.636Z,4.00
2022-12-03T07:28:08.676Z,4.00
2022-12-03T07:30:36.893Z,4.00
2022-12-03T07:33:06.627Z,4.00
2022-12-03T07:35:34.701Z,4.00
2022-12-03T07:38:02.854Z,4.00
2022-12-03T07:40:30.973Z,4.00
2022-12-03T07:42:59.068Z,4.00
2022-12-03T07:45:27.158Z,4.00
2022-12-03T07:47:55.357Z,4.10
2022-12-03T07:50:28.237Z,4.10
2022-12-03T07:52:56.621Z,4.10
2022-12-03T07:55:25.410Z,4.20
2022-12-03T07:57:53.622Z,4.20
2022-12-03T08:00:22.908Z,4.20
2022-12-03T08:02:51.068Z,4.10
2022-12-03T08:05:21.304Z,4.20
2022-12-03T08:07:51.001Z,4.20
2022-12-03T08:10:22.022Z,4.30
2022-12-03T08:12:50.223Z,4.20
2022-12-03T08:15:20.578Z,4.20
2022-12-03T08:17:53.116Z,4.30
2022-12-03T08:20:22.931Z,4.30
2022-12-03T08:22:54.176Z,4.20
2022-12-03T08:25:23.623Z,4.30
2022-12-03T08:27:53.131Z,4.30
2022-12-03T08:30:21.698Z,4.30
2022-12-03T08:32:50.160Z,4.30
2022-12-03T08:35:23.354Z,4.30
2022-12-03T08:38:03.190Z,4.40
2022-12-03T08:40:35.890Z,4.40
2022-12-03T08:43:10.627Z,4.40
2022-12-03T08:45:42.152Z,4.40
2022-12-03T08:48:24.207Z,4.40
2022-12-03T08:50:53.133Z,4.40
2022-12-03T08:53:34.978Z,4.50
2022-12-03T08:56:06.127Z,4.50
2022-12-03T08:58:42.632Z,4.40
2022-12-03T09:01:30.885Z,4.40
2022-12-03T09:04:16.412Z,4.50
2022-12-03T09:06:44.800Z,4.50
2022-12-03T09:09:14.470Z,4.50
2022-12-03T09:11:44.417Z,4.30
2022-12-03T09:14:18.344Z,4.30
2022-12-03T09:16:47.189Z,4.30
2022-12-03T09:19:15.429Z,4.20
2022-12-03T09:21:43.638Z,4.30
2022-12-03T09:24:13.271Z,4.30
2022-12-03T09:26:41.482Z,4.30
2022-12-03T09:29:12.313Z,4.40
2022-12-03T09:31:41.282Z,4.40
2022-12-03T09:34:10.312Z,4.40
2022-12-03T09:36:38.640Z,4.50
2022-12-03T09:39:07.012Z,4.40
2022-12-03T09:41:36.948Z,4.50
2022-12-03T09:44:05.862Z,4.50
2022-12-03T09:46:37.377Z,4.60
2022-12-03T09:49:13.899Z,4.60
2022-12-03T09:51:42.468Z,4.60
2022-12-03T09:54:16.729Z,4.50
2022-12-03T09:56:46.577Z,4.60
2022-12-03T09:59:15.286Z,4.70
2022-12-03T10:01:43.876Z,4.60
2022-12-03T10:04:12.537Z,4.60
2022-12-03T10:06:45.761Z,4.50
2022-12-03T10:09:17.632Z,4.50
2022-12-03T10:11:47.150Z,4.40
2022-12-03T10:14:19.051Z,4.50
2022-12-03T10:16:47.649Z,4.30
2022-12-03T10:19:21.864Z,4.40
2022-12-03T10:21:50.166Z,4.30
2022-12-03T10:24:26.975Z,4.30
2022-12-03T10:26:58.883Z,4.30
2022-12-03T10:29:33.703Z,4.20
2022-12-03T10:32:04.789Z,4.40
2022-12-03T10:34:35.004Z,4.40
2022-12-03T10:37:17.809Z,4.40
2022-12-03T10:39:56.377Z,4.40
2022-12-03T10:42:26.865Z,4.30
2022-12-03T10:45:15.867Z,4.30
2022-12-03T10:47:44.956Z,4.40
2022-12-03T10:50:19.108Z,4.10
2022-12-03T10:52:48.426Z,3.90
2022-12-03T10:55:17.061Z,4.00
2022-12-03T10:57:47.162Z,4.00
2022-12-03T11:00:19.783Z,4.00
2022-12-03T11:02:56.167Z,4.10
2022-12-03T11:05:28.235Z,4.20
2022-12-03T11:07:57.092Z,4.20
2022-12-03T11:10:25.691Z,4.30
2022-12-03T11:13:29.970Z,4.30
2022-12-03T11:15:58.459Z,3.90
2022-12-03T11:19:02.114Z,4.00
2022-12-03T11:21:33.370Z,4.20
2022-12-03T11:24:21.779Z,4.20
2022-12-03T11:27:22.241Z,4.20
2022-12-03T11:29:55.195Z,4.30
2022-12-03T11:33:09.020Z,4.20
2022-12-03T11:36:15.484Z,4.20
2022-12-03T11:38:53.025Z,4.30
2022-12-03T11:41:29.933Z,4.30
2022-12-03T11:44:33.784Z,4.20
2022-12-03T11:47:15.080Z,4.20
2022-12-03T11:49:49.547Z,4.20
2022-12-03T11:52:24.920Z,4.20
2022-12-03T11:54:57.307Z,4.20
2022-12-03T11:57:43.467Z,4.20
2022-12-03T12:00:21.426Z,4.30
2022-12-03T12:02:52.174Z,4.30
2022-12-03T12:05:27.655Z,4.20
2022-12-03T12:07:56.752Z,4.20
2022-12-03T12:10:47.717Z,4.30
2022-12-03T12:13:50.578Z,4.20
2022-12-03T12:16:37.766Z,4.20
2022-12-03T12:19:32.875Z,4.20
2022-12-03T12:22:19.315Z,4.10
2022-12-03T12:24:52.679Z,4.10
2022-12-03T12:27:22.806Z,4.10
2022-12-03T12:29:56.411Z,4.10
2022-12-03T12:32:28.456Z,4.10
2022-12-03T12:35:01.438Z,4.20
2022-12-03T12:37:35.520Z,4.20
2022-12-03T12:40:11.471Z,4.00
2022-12-03T12:42:44.138Z,3.90
2022-12-03T12:45:16.386Z,4.00
2022-12-03T12:47:51.169Z,4.00
2022-12-03T12:50:21.512Z,4.20
2022-12-03T12:52:53.666Z,4.20
2022-12-03T12:55:23.898Z,4.30
2022-12-03T12:57:52.647Z,4.20
2022-12-03T13:00:23.346Z,4.20
2022-12-03T13:02:55.109Z,4.10
2022-12-03T13:05:27.692Z,4.20
2022-12-03T13:07:56.866Z,4.00
2022-12-03T13:10:37.730Z,4.00
2022-12-03T13:13:23.393Z,4.10
2022-12-03T13:16:12.434Z,4.10
2022-12-03T13:18:44.448Z,4.10
2022-12-03T13:21:23.019Z,4.20
2022-12-03T13:23:53.482Z,4.20
2022-12-03T13:26:36.570Z,4.10
2022-12-03T13:29:15.870Z,4.00
2022-12-03T13:31:51.811Z,4.20
2022-12-03T13:34:23.570Z,4.10
2022-12-03T13:36:58.112Z,4.10
2022-12-03T13:39:31.996Z,4.00
2022-12-03T13:42:31.569Z,4.00
2022-12-03T13:45:00.883Z,3.90
2022-12-03T13:47:29.157Z,3.80
2022-12-03T13:49:59.965Z,3.80
2022-12-03T13:52:33.803Z,3.80
2022-12-03T13:55:04.739Z,3.80
2022-12-03T13:57:32.929Z,3.90
2022-12-03T14:00:01.353Z,3.80
2022-12-03T14:02:29.725Z,3.80
2022-12-03T14:05:00.399Z,3.80
2022-12-03T14:07:30.467Z,3.70
2022-12-03T14:09:58.963Z,3.80
2022-12-03T14:12:26.231Z,3.80
2022-12-03T14:14:55.166Z,3.80
2022-12-03T14:17:23.448Z,3.70
2022-12-03T14:19:51.887Z,3.70
2022-12-03T14:22:23.506Z,3.70
2022-12-03T14:24:53.310Z,3.60
2022-12-03T14:27:23.057Z,3.70
2022-12-03T14:29:52.245Z,3.60
2022-12-03T14:32:21.444Z,3.80
2022-12-03T14:34:49.618Z,3.70
2022-12-03T14:37:17.974Z,3.70
2022-12-03T14:39:46.302Z,3.60
2022-12-03T14:42:16.673Z,3.60
2022-12-03T14:44:46.370Z,3.70
2022-12-03T14:47:15.471Z,3.70
2022-12-03T14:49:44.141Z,3.60
2022-12-03T14:52:13.017Z,3.70
2022-12-03T14:54:42.648Z,3.60
2022-12-03T14:57:12.807Z,3.60
2022-12-03T14:59:43.610Z,3.60
2022-12-03T15:02:13.033Z,3.60
2022-12-03T15:04:42.049Z,3.40
2022-12-03T15:07:10.866Z,3.40
2022-12-03T15:09:39.203Z,3.40
2022-12-03T15:12:08.253Z,3.50
2022-12-03T15:14:36.640Z,3.50
2022-12-03T15:17:06.457Z,3.60
2022-12-03T15:19:35.099Z,3.50
2022-12-03T15:22:03.400Z,3.50
2022-12-03T15:24:31.711Z,3.50
2022-12-03T15:27:00.508Z,3.60
2022-12-03T15:29:29.410Z,3.60
2022-12-03T15:31:59.494Z,3.50
2022-12-03T15:34:29.404Z,3.10
2022-12-03T15:36:57.640Z,3.20
2022-12-03T15:39:26.043Z,3.20
2022-12-03T15:41:54.981Z,3.20
2022-12-03T15:44:23.367Z,3.40
2022-12-03T15:46:51.626Z,3.50
2022-12-03T15:49:20.048Z,3.50
2022-12-03T15:51:49.939Z,3.30
2022-12-03T15:54:18.311Z,3.40
2022-12-03T15:56:46.576Z,3.30
2022-12-03T15:59:15.566Z,3.30
2022-12-03T16:01:44.096Z,3.30
2022-12-03T16:04:12.344Z,3.30
2022-12-03T16:06:40.613Z,3.30
2022-12-03T16:09:10.344Z,3.30
2022-12-03T16:11:38.851Z,3.40
2022-12-03T16:14:07.098Z,3.50
2022-12-03T16:16:35.646Z,3.50
2022-12-03T16:19:05.134Z,3.40
2022-12-03T16:21:34.719Z,3.50
2022-12-03T16:24:03.197Z,3.40
2022-12-03T16:26:33.326Z,3.40
2022-12-03T16:29:01.717Z,3.40
2022-12-03T16:31:32.911Z,3.40
2022-12-03T16:34:01.444Z,3.30
2022-12-03T16:36:30.933Z,3.40
2022-12-03T16:39:00.366Z,3.20
2022-12-03T16:41:30.569Z,3.10
2022-12-03T16:44:03.011Z,3.00
2022-12-03T16:46:32.357Z,2.90
2022-12-03T16:49:04.030Z,3.00
2022-12-03T16:51:33.728Z,3.20
2022-12-03T16:54:02.727Z,3.20
2022-12-03T16:56:32.199Z,3.30
2022-12-03T16:59:02.027Z,3.20
2022-12-03T17:01:33.787Z,3.30
2022-12-03T17:04:03.113Z,3.20
2022-12-03T17:06:31.879Z,3.20
2022-12-03T17:09:00.376Z,3.30
2022-12-03T17:11:29.037Z,3.30
2022-12-03T17:13:57.370Z,3.20
2022-12-03T17:16:27.228Z,3.10
2022-12-03T17:18:55.795Z,3.30
2022-12-03T17:21:24.076Z,3.30
2022-12-03T17:23:52.279Z,3.40
2022-12-03T17:26:21.178Z,3.20
2022-12-03T17:28:49.687Z,3.30
2022-12-03T17:31:18.144Z,3.20
2022-12-03T17:33:48.162Z,3.30
2022-12-03T17:36:16.643Z,3.30
2022-12-03T17:38:45.000Z,3.20
2022-12-03T17:41:13.327Z,3.00
2022-12-03T17:43:41.578Z,3.10
2022-12-03T17:46:10.187Z,3.30
2022-12-03T17:48:40.602Z,3.10
2022-12-03T17:51:10.497Z,3.10
2022-12-03T17:53:38.638Z,3.00
2022-12-03T17:56:07.619Z,3.10
2022-12-03T17:58:35.847Z,2.90
2022-12-03T18:01:05.727Z,3.00
2022-12-03T18:03:34.107Z,3.10
2022-12-03T18:06:02.422Z,2.90
2022-12-03T18:08:32.051Z,3.10
2022-12-03T18:11:00.165Z,3.10
2022-12-03T18:13:28.559Z,3.00
2022-12-03T18:15:57.216Z,2.90
2022-12-03T18:18:25.716Z,3.00
2022-12-03T18:20:54.513Z,3.00
2022-12-03T18:23:22.967Z,3.00
2022-12-03T18:25:52.807Z,3.10
2022-12-03T18:28:21.067Z,2.90
2022-12-03T18:30:52.754Z,3.00
2022-12-03T18:33:23.400Z,3.00
2022-12-03T18:35:54.940Z,3.10
2022-12-03T18:38:26.744Z,3.10
2022-12-03T18:40:58.023Z,3.10
2022-12-03T18:43:28.023Z,3.10
2022-12-03T18:45:56.296Z,3.10
2022-12-03T18:48:24.358Z,3.20
2022-12-03T18:50:52.570Z,3.10
2022-12-03T18:53:20.957Z,3.10
2022-12-03T18:55:49.512Z,3.10
2022-12-03T18:58:19.403Z,3.10
2022-12-03T19:00:47.601Z,3.00
2022-12-03T19:03:15.971Z,3.00
2022-12-03T19:05:44.206Z,3.00
2022-12-03T19:08:15.217Z,2.90
2022-12-03T19:10:44.243Z,3.00
2022-12-03T19:13:13.003Z,2.90
2022-12-03T19:15:42.724Z,2.80
2022-12-03T19:18:10.930Z,2.90
2022-12-03T19:20:42.130Z,2.90
2022-12-03T19:23:10.671Z,2.90
2022-12-03T19:25:38.765Z,2.90
2022-12-03T19:28:07.258Z,2.90
2022-12-03T19:30:35.524Z,2.80
2022-12-03T19:33:05.243Z,2.70
2022-12-03T19:35:33.599Z,2.70
2022-12-03T19:38:01.899Z,2.80
2022-12-03T19:40:32.270Z,2.90
2022-12-03T19:43:00.507Z,2.90
2022-12-03T19:45:28.946Z,3.00
2022-12-03T19:47:57.432Z,3.10
2022-12-03T19:50:26.938Z,3.10
2022-12-03T19:52:55.236Z,3.10
2022-12-03T19:55:23.521Z,2.90
2022-12-03T19:57:51.821Z,2.90
2022-12-03T20:00:20.425Z,2.90
2022-12-03T20:02:50.246Z,2.80
2022-12-03T20:05:18.716Z,2.80
2022-12-03T20:07:48.749Z,2.80
2022-12-03T20:10:17.173Z,2.90
2022-12-03T20:12:45.758Z,3.00
2022-12-03T20:15:14.844Z,3.00
2022-12-03T20:17:43.097Z,3.00
2022-12-03T20:20:12.403Z,2.90
2022-12-03T20:22:40.841Z,3.00
2022-12-03T20:25:11.276Z,3.10
2022-12-03T20:27:39.495Z,3.10
2022-12-03T20:30:08.807Z,2.90
2022-12-03T20:32:40.672Z,2.80
2022-12-03T20:35:13.308Z,2.90
2022-12-03T20:37:41.697Z,2.80
2022-12-03T20:40:12.605Z,2.90
2022-12-03T20:42:40.856Z,2.90
2022-12-03T20:45:10.069Z,3.00
2022-12-03T20:47:38.371Z,3.00
2022-12-03T20:50:08.179Z,2.80
2022-12-03T20:52:36.525Z,2.80
2022-12-03T20:55:05.331Z,2.80
2022-12-03T20:57:35.020Z,2.90
2022-12-03T21:00:03.501Z,2.90
2022-12-03T21:02:31.927Z,2.90
2022-12-03T21:05:00.396Z,2.90
2022-12-03T21:07:28.940Z,2.90
2022-12-03T21:09:57.580Z,3.10
2022-12-03T21:12:26.015Z,3.00
2022-12-03T21:14:55.812Z,3.00
2022-12-03T21:17:24.260Z,3.00
2022-12-03T21:19:53.237Z,3.00
2022-12-03T21:22:22.099Z,3.00
2022-12-03T21:24:50.562Z,3.00
2022-12-03T21:27:21.740Z,3.00
2022-12-03T21:29:51.143Z,3.00
2022-12-03T21:32:21.068Z,3.10
2022-12-03T21:34:49.430Z,3.00
2022-12-03T21:37:17.985Z,3.00
2022-12-03T21:39:46.481Z,2.90
2022-12-03T21:42:35.094Z,2.80
2022-12-03T21:45:05.381Z,2.90
2022-12-03T21:47:37.542Z,2.90
2022-12-03T21:50:07.816Z,2.80
2022-12-03T21:52:37.074Z,2.90
2022-12-03T21:55:06.386Z,2.80
2022-12-03T21:57:36.942Z,3.00
2022-12-03T22:00:08.906Z,3.00
2022-12-03T22:02:41.099Z,3.00
2022-12-03T22:05:10.699Z,3.00
2022-12-03T22:07:40.307Z,2.90
2022-12-03T22:10:11.974Z,2.90
2022-12-03T22:12:40.947Z,2.90
2022-12-03T22:15:16.560Z,2.90
2022-12-03T22:17:48.504Z,2.80
2022-12-03T22:20:17.374Z,3.00
2022-12-03T22:22:45.935Z,2.90
2022-12-03T22:25:14.735Z,2.90
2022-12-03T22:27:42.880Z,2.90
2022-12-03T22:30:11.886Z,3.00
2022-12-03T22:32:40.047Z,3.00
2022-12-03T22:35:10.293Z,3.00
2022-12-03T22:37:38.612Z,3.00
2022-12-03T22:40:07.860Z,2.90
2022-12-03T22:42:36.200Z,2.90
2022-12-03T22:45:04.669Z,2.90
2022-12-03T22:47:32.990Z,3.00
2022-12-03T22:50:01.137Z,3.00
2022-12-03T22:52:31.316Z,2.90
2022-12-03T22:54:59.410Z,2.90
2022-12-03T22:57:27.490Z,2.90
2022-12-03T22:59:55.954Z,2.90
2022-12-03T23:02:24.405Z,2.90
2022-12-03T23:04:55.871Z,2.90
2022-12-03T23:07:24.274Z,2.90
2022-12-03T23:09:54.155Z,3.10
2022-12-03T23:12:22.535Z,3.10
2022-12-03T23:14:54.284Z,3.00
2022-12-03T23:17:22.426Z,2.90
2022-12-03T23:19:50.676Z,3.00
2022-12-03T23:22:19.086Z,3.00
2022-12-03T23:24:47.180Z,3.00
2022-12-03T23:27:16.783Z,2.90
2022-12-03T23:29:44.966Z,2.90
2022-12-03T23:32:13.520Z,2.90
2022-12-03T23:34:41.762Z,3.00
2022-12-03T23:37:10.014Z,2.90
2022-12-03T23:39:38.428Z,2.90
2022-12-03T23:42:06.772Z,2.90
2022-12-03T23:44:36.720Z,3.00
2022-12-03T23:47:05.117Z,2.90
2022-12-03T23:49:33.419Z,2.90
2022-12-03T23:52:01.559Z,3.00
2022-12-03T23:54:29.811Z,3.10
2022-12-03T23:56:58.103Z,3.10
2022-12-03T23:59:26.282Z,3.10
